หน้าหลัก
METAR-TAF:

METAR-TAF

ท่าอากาศยาน :

โพโลเควน, แอฟริกาใต้

ละติจูด: 23-50-43S, ลองจิจูด: 29-27-31E, ความสูง: 1242 ม.

การสังเกตสภาพอากาศปัจจุบัน

รายงานได้ทำขึ้นเมื่อ 1 ชั่วโมงและ 18 นาทีที่แล้ว ณ เวลา 02:00 UTC
ลม 5 นอตจากใต้/ตะวันตกเฉียงใต้
อุณหภูมิ 3°C
ความชื้น 81%
ความกดอากาศ 1029 hPa

METAR: FAPP 130200Z AUTO 21005KT //// // ////// 03/M00 Q1029

เวลา: 05:18 (03:18 UTC)

การพยากรณ์

รายงานได้ทำขึ้นเมื่อ 18 ชั่วโมงและ 18 นาทีที่แล้ว ณ เวลา 09:00 UTC
การพยากรณ์มีผลตั้งแต่วันที่ 12 ณ เวลา 10 UTC จนถึงวันที่ 12 ณ เวลา 18 UTC
ลม 3 นอตจากทิศทางซึ่งแปรผันได้
ทัศนวิสัย 10 กม. หรือมากกว่า
ไม่มีเมฆต่ำกว่า 1,500 ม. และไม่มีเมฆคิวมูโลนิมบัส

TAF: FAPP 120900Z 1210/1218 VRB03KT CAVOK TX20/1213Z TN09/1218Z

สังเกตการณ์สภาพอากาศและพยากรณ์อากาศของสนามบินมากกว่า 4000 แห่ง (รายงาน METAR และ TAF).

สถานีที่ดูได้จะแสดงไว้ด้วยจุดสีเหลืองและสีแดงบนแผนที่.

เลื่อนเมาส์ไปเหนือจุดเพื่อดูชื่อสถานี.

แล้วคลิกเพื่อดูสังเกตการณ์และการพยากรณ์สภาพอากาศ.

ในการเปลี่ยนแผนที่: คลิกที่ปุ่มสีเขียวที่มีกากบาทสีดำเพื่อซูมเข้า; ที่ปุ่มสีเขียวที่มีขีดเพื่อซูมออก; หรือที่ลูกศรสีเขียวเพื่อไปยังแผนที่ที่อยู่ติดกัน.


METAR-TAF: